Time;durP1;ratioP1;P1;durP2;ratioP2;P2;SDS_P1;SDS_P2;PMS_P1;PMS_P2;Temp;Humidity;BMP_temperature;BMP_pressure;BME280_temperature;BME280_humidity;BME280_pressure;Samples;Min_cycle;Max_cycle;Signal;HPM_P1;HPM_P2
2023/10/07 00:02:30;;;;;;;0.10;0.10;;;;;;;11.53;100.00;99799.16;5113345;28;20742;-58
2023/10/07 00:05:25;;;;;;;0.10;0.10;;;;;;;11.40;100.00;99801.69;5113439;28;20194;-57
2023/10/07 00:08:16;;;;;;;0.10;0.10;;;;;;;11.39;100.00;99799.97;5113458;28;20297;-57
2023/10/07 00:11:11;;;;;;;0.10;0.10;;;;;;;11.45;100.00;99793.44;5113122;28;20198;-57
2023/10/07 00:13:58;;;;;;;0.10;0.10;;;;;;;11.50;100.00;99786.09;5113298;28;20224;-57
2023/10/07 00:16:46;;;;;;;0.10;0.10;;;;;;;11.40;100.00;99783.09;5113187;28;20677;-58
2023/10/07 00:19:33;;;;;;;0.10;0.10;;;;;;;11.45;100.00;99786.34;5113137;28;20271;-58
2023/10/07 00:22:20;;;;;;;0.10;0.10;;;;;;;11.24;100.00;99774.31;5113241;28;20194;-57
2023/10/07 00:25:12;;;;;;;0.10;0.10;;;;;;;11.28;100.00;99774.97;5113198;28;20205;-57
2023/10/07 00:28:02;;;;;;;0.10;0.10;;;;;;;11.14;100.00;99773.13;5113221;28;20198;-57
2023/10/07 00:30:49;;;;;;;0.10;0.10;;;;;;;11.11;100.00;99775.94;5110839;28;20197;-57
2023/10/07 00:33:49;;;;;;;0.10;0.10;;;;;;;11.25;100.00;99777.81;5113188;28;20189;-58
2023/10/07 00:36:47;;;;;;;0.10;0.10;;;;;;;11.16;100.00;99774.72;5113143;28;20268;-57
2023/10/07 00:39:37;;;;;;;0.20;0.20;;;;;;;11.09;100.00;99778.66;5113131;28;20206;-57
2023/10/07 00:42:25;;;;;;;0.10;0.10;;;;;;;11.24;100.00;99782.25;5112965;28;20217;-57
2023/10/07 00:45:16;;;;;;;0.10;0.10;;;;;;;11.14;100.00;99773.13;5112005;28;20202;-57
2023/10/07 00:48:10;;;;;;;0.10;0.10;;;;;;;10.92;100.00;99765.53;5117061;28;20312;-57
2023/10/07 00:50:57;;;;;;;0.10;0.10;;;;;;;10.80;100.00;99758.22;5117002;28;20236;-58
2023/10/07 00:53:53;;;;;;;0.10;0.10;;;;;;;10.78;100.00;99768.06;5115831;28;20639;-57
2023/10/07 00:56:43;;;;;;;0.10;0.10;;;;;;;10.78;100.00;99782.16;5116962;28;20337;-58
2023/10/07 00:59:31;;;;;;;0.10;0.10;;;;;;;10.90;100.00;99799.19;5114522;28;20198;-58
2023/10/07 01:02:29;;;;;;;0.10;0.10;;;;;;;10.99;100.00;99803.97;5116582;28;20319;-57
2023/10/07 01:05:27;;;;;;;0.10;0.10;;;;;;;10.73;100.00;99797.47;5116540;28;20194;-57
2023/10/07 01:08:14;;;;;;;0.10;0.10;;;;;;;10.55;100.00;99791.38;5116603;28;20195;-57
2023/10/07 01:11:10;;;;;;;0.10;0.10;;;;;;;10.75;100.00;99795.59;5116565;28;20193;-57
2023/10/07 01:14:00;;;;;;;0.10;0.10;;;;;;;10.89;100.00;99778.91;5116547;28;20202;-57
2023/10/07 01:16:47;;;;;;;0.10;0.10;;;;;;;10.95;100.00;99791.00;5116455;28;20198;-57
2023/10/07 01:19:51;;;;;;;0.10;0.10;;;;;;;10.87;100.00;99794.06;5116468;28;20677;-58
2023/10/07 01:23:02;;;;;;;0.10;0.10;;;;;;;11.01;100.00;99795.97;5116263;28;20197;-58
2023/10/07 01:25:50;;;;;;;0.10;0.10;;;;;;;11.03;100.00;99791.44;5115258;28;20194;-58
2023/10/07 01:28:40;;;;;;;0.10;0.10;;;;;;;10.60;100.00;99791.13;5115186;28;20255;-58
2023/10/07 01:31:29;;;;;;;0.10;0.10;;;;;;;10.54;100.00;99779.06;5113752;28;20194;-58
2023/10/07 01:34:19;;;;;;;0.10;0.10;;;;;;;10.47;100.00;99776.81;5115128;28;20194;-58
2023/10/07 01:37:07;;;;;;;0.10;0.10;;;;;;;10.64;100.00;99787.38;5115139;28;20191;-58
2023/10/07 01:39:57;;;;;;;0.10;0.10;;;;;;;10.45;100.00;99794.59;5116040;28;20194;-58
2023/10/07 01:42:44;;;;;;;0.10;0.10;;;;;;;10.48;100.00;99789.13;5114764;28;20194;-58
2023/10/07 01:45:34;;;;;;;0.10;0.10;;;;;;;10.38;100.00;99780.81;5114546;28;20197;-58
2023/10/07 01:48:21;;;;;;;0.20;0.20;;;;;;;10.48;100.00;99786.47;5115793;28;20214;-58
2023/10/07 01:51:14;;;;;;;0.10;0.10;;;;;;;10.43;100.00;99778.78;5115659;28;20316;-58
2023/10/07 01:54:03;;;;;;;0.10;0.10;;;;;;;10.36;100.00;99774.75;5115980;28;20190;-58
2023/10/07 01:56:52;;;;;;;0.10;0.10;;;;;;;10.23;100.00;99777.22;5115505;28;20198;-58
2023/10/07 01:59:39;;;;;;;0.10;0.10;;;;;;;10.18;100.00;99776.53;5114258;28;20266;-58
2023/10/07 02:02:26;;;;;;;0.10;0.10;;;;;;;10.19;100.00;99794.13;5114524;28;20689;-58
2023/10/07 02:05:14;;;;;;;0.10;0.10;;;;;;;10.38;100.00;99795.84;5115214;28;20214;-58
2023/10/07 02:08:02;;;;;;;0.10;0.10;;;;;;;10.65;100.00;99806.78;5115432;28;20194;-58
2023/10/07 02:10:51;;;;;;;0.10;0.10;;;;;;;10.33;100.00;99806.72;5115349;28;20210;-58
2023/10/07 02:13:39;;;;;;;0.10;0.10;;;;;;;10.21;100.00;99796.69;5115396;28;20261;-58
2023/10/07 02:16:27;;;;;;;0.10;0.10;;;;;;;10.07;100.00;99802.72;5112876;28;20242;-58
2023/10/07 02:19:15;;;;;;;0.20;0.20;;;;;;;9.88;100.00;99794.88;5114257;28;20236;-59
2023/10/07 02:22:04;;;;;;;0.10;0.10;;;;;;;10.03;100.00;99783.47;5115239;28;20189;-58
2023/10/07 02:25:02;;;;;;;0.10;0.10;;;;;;;10.31;100.00;99780.28;5115034;28;20399;-58
2023/10/07 02:27:49;;;;;;;0.10;0.10;;;;;;;10.32;100.00;99787.28;5115152;28;20284;-58
2023/10/07 02:30:51;;;;;;;0.10;0.10;;;;;;;10.33;100.00;99774.94;5113798;28;20194;-58
2023/10/07 02:33:42;;;;;;;0.10;0.10;;;;;;;10.18;100.00;99784.50;5113925;28;20222;-59
2023/10/07 02:36:31;;;;;;;0.10;0.10;;;;;;;10.13;100.00;99796.22;5113914;28;20201;-58
2023/10/07 02:39:23;;;;;;;0.10;0.10;;;;;;;10.18;100.00;99795.06;5114621;28;20194;-58
2023/10/07 02:42:10;;;;;;;0.10;0.10;;;;;;;10.33;100.00;99809.34;5114636;28;20220;-58
2023/10/07 02:45:11;;;;;;;0.13;0.13;;;;;;;10.45;100.00;99811.34;5113279;28;20210;-58
2023/10/07 02:48:01;;;;;;;0.10;0.10;;;;;;;10.57;100.00;99801.88;5114598;28;20198;-58
2023/10/07 02:50:51;;;;;;;0.10;0.10;;;;;;;10.47;100.00;99798.03;5114657;28;20194;-58
2023/10/07 02:53:39;;;;;;;0.10;0.10;;;;;;;10.43;100.00;99784.09;5114494;28;20202;-58
2023/10/07 02:56:29;;;;;;;0.10;0.10;;;;;;;10.54;100.00;99780.88;5114621;28;20198;-58
2023/10/07 02:59:27;;;;;;;0.10;0.10;;;;;;;10.55;100.00;99778.13;5113059;28;20315;-57
2023/10/07 03:02:21;;;;;;;0.10;0.10;;;;;;;10.60;100.00;99785.81;5114440;28;20265;-58
2023/10/07 03:05:14;;;;;;;0.10;0.10;;;;;;;10.51;100.00;99792.47;5114176;28;20237;-58
2023/10/07 03:08:04;;;;;;;0.10;0.10;;;;;;;10.48;100.00;99787.34;5113346;28;20198;-58
2023/10/07 03:11:03;;;;;;;0.10;0.10;;;;;;;10.48;100.00;99787.34;5113057;28;20293;-58
2023/10/07 03:13:56;;;;;;;0.10;0.10;;;;;;;10.48;100.00;99768.78;5114328;28;20186;-58
2023/10/07 03:16:46;;;;;;;0.10;0.10;;;;;;;10.20;100.00;99766.72;5114034;28;20189;-58
2023/10/07 03:19:48;;;;;;;0.10;0.10;;;;;;;10.52;100.00;99773.00;5113017;28;20370;-58
2023/10/07 03:23:10;;;;;;;0.10;0.10;;;;;;;10.41;100.00;99788.59;5114054;28;20231;-58
2023/10/07 03:26:05;;;;;;;0.10;0.10;;;;;;;10.54;100.00;99787.03;5113778;28;20217;-58
2023/10/07 03:28:53;;;;;;;0.10;0.10;;;;;;;10.47;100.00;99790.94;5113972;28;20240;-58
2023/10/07 03:31:48;;;;;;;0.10;0.10;;;;;;;10.56;100.00;99786.94;5113951;28;20201;-58
2023/10/07 03:34:37;;;;;;;0.10;0.10;;;;;;;10.87;100.00;99796.72;5113960;28;20259;-58
2023/10/07 03:37:25;;;;;;;0.10;0.10;;;;;;;10.76;100.00;99792.00;5113727;28;20252;-58
2023/10/07 03:40:25;;;;;;;0.10;0.10;;;;;;;10.70;100.00;99796.78;5112863;28;20193;-57
2023/10/07 03:43:13;;;;;;;0.10;0.10;;;;;;;10.72;100.00;99793.13;5113741;28;20297;-58
2023/10/07 03:46:00;;;;;;;0.10;0.10;;;;;;;10.86;100.00;99801.16;5111980;28;20263;-58
2023/10/07 03:48:53;;;;;;;0.10;0.10;;;;;;;10.78;100.00;99789.25;5113728;28;20308;-58
2023/10/07 03:51:40;;;;;;;0.10;0.10;;;;;;;10.83;100.00;99785.44;5113593;28;20190;-58
2023/10/07 03:54:29;;;;;;;0.10;0.10;;;;;;;10.76;100.00;99777.91;5113588;28;20216;-58
2023/10/07 03:57:18;;;;;;;0.10;0.10;;;;;;;10.82;100.00;99783.72;5113582;28;20278;-58
2023/10/07 04:00:11;;;;;;;0.10;0.10;;;;;;;10.74;100.00;99770.03;5112162;28;20194;-58
2023/10/07 04:03:01;;;;;;;0.10;0.10;;;;;;;10.67;100.00;99766.00;5113432;28;20198;-58
2023/10/07 04:05:49;;;;;;;0.10;0.10;;;;;;;10.67;100.00;99767.81;5113185;28;20700;-58
2023/10/07 04:08:39;;;;;;;0.10;0.10;;;;;;;10.57;100.00;99775.41;5113163;28;20233;-58
2023/10/07 04:11:28;;;;;;;0.10;0.10;;;;;;;10.60;100.00;99785.81;5113276;28;20194;-58
2023/10/07 04:14:27;;;;;;;0.10;0.10;;;;;;;10.69;100.00;99800.34;5112154;28;20268;-58
2023/10/07 04:17:14;;;;;;;0.10;0.10;;;;;;;10.78;100.00;99798.06;5113122;28;20197;-58
2023/10/07 04:20:18;;;;;;;0.10;0.10;;;;;;;10.65;100.00;99804.13;5113369;28;20260;-58
2023/10/07 04:23:04;;;;;;;0.10;0.10;;;;;;;10.82;100.00;99796.13;5117517;28;20189;-58
2023/10/07 04:25:55;;;;;;;0.10;0.10;;;;;;;10.83;100.00;99784.59;5117291;28;20210;-58
2023/10/07 04:28:42;;;;;;;0.10;0.10;;;;;;;11.01;100.00;99777.41;5117441;28;20190;-58
2023/10/07 04:31:37;;;;;;;0.10;0.10;;;;;;;10.99;100.00;99779.25;5116121;28;20198;-58
2023/10/07 04:34:33;;;;;;;0.10;0.10;;;;;;;10.97;100.00;99763.44;5117410;28;20197;-58
2023/10/07 04:37:29;;;;;;;0.10;0.10;;;;;;;10.89;100.00;99773.63;5117158;28;20330;-58
2023/10/07 04:40:53;;;;;;;0.10;0.10;;;;;;;10.95;100.00;99775.09;5117119;28;20270;-58
2023/10/07 04:43:37;;;;;;;0.10;0.10;;;;;;;10.87;100.00;99770.22;5117056;28;20269;-58
2023/10/07 04:46:24;;;;;;;0.10;0.10;;;;;;;11.05;100.00;99790.41;5115375;28;20221;-58
2023/10/07 04:49:13;;;;;;;0.10;0.10;;;;;;;11.09;100.00;99783.13;5116012;28;20185;-58
2023/10/07 04:52:04;;;;;;;0.10;0.10;;;;;;;11.07;100.00;99774.41;5116977;28;20202;-58
2023/10/07 04:54:52;;;;;;;0.10;0.10;;;;;;;11.25;100.00;99777.81;5116791;28;20260;-58
2023/10/07 04:57:56;;;;;;;0.10;0.10;;;;;;;11.34;100.00;99783.44;5116841;28;20202;-58
2023/10/07 05:00:47;;;;;;;0.10;0.10;;;;;;;11.32;100.00;99763.28;5115482;28;20308;-57
2023/10/07 05:03:34;;;;;;;0.10;0.10;;;;;;;11.36;100.00;99770.09;5116800;28;20206;-58
2023/10/07 05:06:21;;;;;;;0.10;0.10;;;;;;;11.54;100.00;99774.34;5116396;28;20698;-58
2023/10/07 05:09:10;;;;;;;0.10;0.10;;;;;;;11.51;100.00;99778.97;5116430;28;20268;-58
2023/10/07 05:11:57;;;;;;;0.10;0.10;;;;;;;11.56;100.00;99766.28;5116610;28;20189;-58
2023/10/07 05:14:43;;;;;;;0.10;0.10;;;;;;;11.52;100.00;99762.13;5115356;28;20190;-58
2023/10/07 05:17:34;;;;;;;0.10;0.10;;;;;;;11.45;100.00;99754.50;5116393;28;20186;-58
2023/10/07 05:20:28;;;;;;;0.10;0.10;;;;;;;11.51;100.00;99776.31;5116424;28;20202;-58
2023/10/07 05:23:17;;;;;;;0.10;0.10;;;;;;;11.71;100.00;99771.56;5116580;28;20198;-58
2023/10/07 05:26:08;;;;;;;0.10;0.10;;;;;;;11.74;100.00;99758.09;5115912;28;20213;-58
2023/10/07 05:28:56;;;;;;;0.10;0.10;;;;;;;11.70;100.00;99759.25;5116309;28;20198;-58
2023/10/07 05:31:44;;;;;;;0.10;0.10;;;;;;;11.79;100.00;99770.25;5115634;28;20209;-58
2023/10/07 05:34:33;;;;;;;0.10;0.10;;;;;;;11.64;100.00;99770.19;5116159;28;20198;-58
2023/10/07 05:37:22;;;;;;;0.10;0.10;;;;;;;11.74;100.00;99767.88;5116143;28;20300;-58
2023/10/07 05:40:13;;;;;;;0.10;0.10;;;;;;;11.95;100.00;99782.53;5115944;28;20190;-57
2023/10/07 05:43:00;;;;;;;0.10;0.10;;;;;;;11.77;100.00;99786.25;5116070;28;20210;-57
2023/10/07 05:45:47;;;;;;;0.10;0.10;;;;;;;11.76;100.00;99782.75;5114619;28;20214;-57
2023/10/07 05:48:38;;;;;;;0.10;0.10;;;;;;;11.68;100.00;99782.38;5115875;28;20198;-59
2023/10/07 05:51:25;;;;;;;0.10;0.10;;;;;;;11.71;100.00;99798.09;5115799;28;20198;-59
2023/10/07 05:54:12;;;;;;;0.10;0.10;;;;;;;11.77;100.00;99786.25;5115696;28;20194;-59
2023/10/07 05:57:04;;;;;;;0.10;0.10;;;;;;;11.88;100.00;99785.69;5115685;28;20202;-59
2023/10/07 05:59:51;;;;;;;0.10;0.10;;;;;;;11.73;100.00;99784.75;5114327;28;20201;-59
2023/10/07 06:02:40;;;;;;;0.10;0.10;;;;;;;11.76;100.00;99780.09;5115591;28;20240;-57
2023/10/07 06:05:29;;;;;;;0.10;0.10;;;;;;;11.82;100.00;99786.88;5115553;28;20236;-58
2023/10/07 06:08:15;;;;;;;0.10;0.10;;;;;;;11.78;100.00;99787.13;5115500;28;20187;-58
2023/10/07 06:11:04;;;;;;;0.10;0.10;;;;;;;11.82;100.00;99788.69;5115498;28;20260;-58
2023/10/07 06:13:53;;;;;;;0.10;0.10;;;;;;;11.82;14.32;63158.22;5115179;28;20198;-58
2023/10/07 06:16:42;;;;;;;0.10;0.10;;;;;;;11.52;100.00;99794.81;5115285;28;20354;-58
2023/10/07 06:19:29;;;;;;;0.10;0.10;;;;;;;11.47;100.00;99796.84;5115416;28;20255;-58
2023/10/07 06:22:16;;;;;;;0.10;0.10;;;;;;;11.64;100.00;99806.50;5115208;28;20194;-58
2023/10/07 06:25:05;;;;;;;0.10;0.10;;;;;;;11.60;100.00;99802.34;5115186;28;20197;-58
2023/10/07 06:27:52;;;;;;;0.10;0.10;;;;;;;11.69;100.00;99796.50;5115146;28;20190;-58
2023/10/07 06:30:42;;;;;;;0.10;0.10;;;;;;;11.94;100.00;99803.88;5113661;28;20394;-58
2023/10/07 06:33:31;;;;;;;0.10;0.10;;;;;;;11.76;100.00;99797.81;5115052;28;20284;-58
2023/10/07 06:36:18;;;;;;;0.10;0.10;;;;;;;11.63;100.00;99800.34;5114908;28;20703;-58
2023/10/07 06:39:07;;;;;;;0.10;0.10;;;;;;;11.73;100.00;99801.50;5113806;28;20194;-58
2023/10/07 06:41:55;;;;;;;0.10;0.10;;;;;;;11.75;100.00;99809.38;5113534;28;20194;-58
2023/10/07 06:44:48;;;;;;;0.10;0.10;;;;;;;11.66;100.00;99805.47;5111507;28;20668;-58
2023/10/07 06:47:37;;;;;;;0.10;0.10;;;;;;;11.73;100.00;99809.47;5114352;28;20229;-58
2023/10/07 06:50:27;;;;;;;0.10;0.10;;;;;;;11.86;100.00;99814.09;5114680;28;20198;-58
2023/10/07 06:53:22;;;;;;;0.10;0.10;;;;;;;11.60;100.00;99812.94;5114522;28;20194;-58
2023/10/07 06:56:12;;;;;;;0.10;0.10;;;;;;;11.70;100.00;99816.78;5114671;28;20287;-57
2023/10/07 06:59:00;;;;;;;0.10;0.10;;;;;;;11.77;100.00;99818.09;5114478;28;20209;-58
2023/10/07 07:01:54;;;;;;;0.10;0.10;;;;;;;11.66;100.00;99824.03;5114323;28;20198;-58
2023/10/07 07:04:43;;;;;;;0.10;0.10;;;;;;;11.80;100.00;99830.41;5114365;28;20198;-59
2023/10/07 07:07:37;;;;;;;0.10;0.10;;;;;;;11.67;100.00;99828.41;5114044;28;20284;-59
2023/10/07 07:10:30;;;;;;;0.10;0.10;;;;;;;11.82;100.00;99829.34;5113765;28;20230;-59
2023/10/07 07:13:22;;;;;;;0.10;0.10;;;;;;;11.93;100.00;99832.22;5114328;28;20195;-59
2023/10/07 07:16:13;;;;;;;0.10;0.10;;;;;;;12.00;100.00;99835.38;5112825;28;20240;-58
2023/10/07 07:19:01;;;;;;;0.10;0.10;;;;;;;12.05;100.00;99835.94;5114221;28;20264;-58
2023/10/07 07:21:50;;;;;;;0.10;0.10;;;;;;;12.14;100.00;99834.56;5113924;28;20222;-59
2023/10/07 07:24:37;;;;;;;0.10;0.10;;;;;;;12.17;100.00;99840.56;5114128;28;20198;-58
2023/10/07 07:27:24;;;;;;;0.00;0.00;;;;;;;11.93;100.00;99847.31;5113723;28;20213;-58
2023/10/07 07:30:19;;;;;;;0.10;0.10;;;;;;;11.82;100.00;99847.09;5112282;28;20202;-58
2023/10/07 07:33:08;;;;;;;0.10;0.10;;;;;;;11.91;100.00;99847.41;5113802;28;20221;-58
2023/10/07 07:35:57;;;;;;;0.10;0.10;;;;;;;11.96;100.00;99855.94;5113877;28;20194;-58
2023/10/07 07:38:47;;;;;;;0.07;0.07;;;;;;;12.10;100.00;99848.97;5113732;28;20314;-59
2023/10/07 07:41:37;;;;;;;0.10;0.10;;;;;;;12.08;100.00;99866.81;5113480;28;20194;-59
2023/10/07 07:44:34;;;;;;;0.10;0.10;;;;;;;12.28;100.00;99864.69;5112470;28;20312;-58
2023/10/07 07:47:21;;;;;;;0.10;0.10;;;;;;;12.27;100.00;99857.66;5113235;28;20210;-58
2023/10/07 07:50:09;;;;;;;0.10;0.10;;;;;;;12.10;100.00;99855.16;5112509;28;20890;-58
2023/10/07 07:52:55;;;;;;;0.10;0.10;;;;;;;12.33;100.00;99851.09;5113579;28;20194;-58
2023/10/07 07:55:44;;;;;;;0.10;0.10;;;;;;;12.17;100.00;99853.84;5113267;28;20197;-58
2023/10/07 07:58:30;;;;;;;0.10;0.10;;;;;;;12.26;100.00;99852.44;5113395;28;20190;-58
2023/10/07 08:01:22;;;;;;;0.10;0.10;;;;;;;12.21;100.00;99852.69;5112202;28;20202;-58
2023/10/07 08:04:17;;;;;;;0.10;0.10;;;;;;;12.36;100.00;99855.41;5113580;28;20252;-59
2023/10/07 08:07:08;;;;;;;0.10;0.10;;;;;;;12.56;100.00;99850.59;5113228;28;20217;-58
2023/10/07 08:10:03;;;;;;;0.10;0.10;;;;;;;12.70;100.00;99851.53;5113242;28;20264;-58
2023/10/07 08:12:52;;;;;;;0.10;0.10;;;;;;;12.63;100.00;99840.41;5113306;28;20198;-59
2023/10/07 08:15:47;;;;;;;0.10;0.10;;;;;;;12.82;100.00;99838.31;5112100;28;20202;-59
2023/10/07 08:18:34;;;;;;;0.10;0.10;;;;;;;12.99;100.00;99841.75;5113243;28;20224;-58
2023/10/07 08:21:28;;;;;;;0.10;0.10;;;;;;;13.03;100.00;99837.97;5112986;28;20288;-58
2023/10/07 08:24:15;;;;;;;0.10;0.10;;;;;;;12.99;100.00;99847.06;5113156;28;20279;-58
2023/10/07 08:27:03;;;;;;;0.10;0.10;;;;;;;12.76;100.00;99845.84;5113102;28;20309;-58
2023/10/07 08:29:53;;;;;;;0.10;0.10;;;;;;;13.04;100.00;99835.19;5112017;28;20231;-58
2023/10/07 08:32:41;;;;;;;0.10;0.10;;;;;;;13.02;100.00;99831.75;5113165;28;20299;-58
2023/10/07 08:35:28;;;;;;;0.10;0.10;;;;;;;12.96;100.00;99842.78;5113321;28;20194;-58
2023/10/07 08:38:22;;;;;;;0.00;0.00;;;;;;;13.32;100.00;99849.44;5113164;28;20210;-59
2023/10/07 08:41:16;;;;;;;0.10;0.10;;;;;;;13.49;100.00;99849.16;5113068;28;20244;-58
2023/10/07 08:44:13;;;;;;;0.10;0.10;;;;;;;13.69;100.00;99851.38;5112047;28;20401;-59
2023/10/07 08:47:05;;;;;;;0.10;0.10;;;;;;;13.79;100.00;99856.09;5112880;28;20716;-58
2023/10/07 08:49:56;;;;;;;0.10;0.10;;;;;;;13.97;100.00;99850.41;5113115;28;20278;-58
2023/10/07 08:52:44;;;;;;;0.10;0.10;;;;;;;14.09;100.00;99846.09;5112875;28;20244;-58
2023/10/07 08:55:33;;;;;;;0.10;0.10;;;;;;;14.19;100.00;99839.19;5112971;28;20194;-58
2023/10/07 08:58:25;;;;;;;0.10;0.10;;;;;;;14.36;100.00;99827.34;5113003;28;20198;-58
2023/10/07 09:01:18;;;;;;;0.10;0.10;;;;;;;14.68;100.00;99824.31;5111673;28;20260;-58
2023/10/07 09:04:07;;;;;;;0.10;0.10;;;;;;;14.57;100.00;99820.59;5112903;28;20198;-58
2023/10/07 09:06:55;;;;;;;0.10;0.10;;;;;;;14.91;100.00;99820.84;5113108;28;20217;-58
2023/10/07 09:09:43;;;;;;;0.10;0.10;;;;;;;14.92;100.00;99824.38;5116133;28;20300;-58
2023/10/07 09:12:36;;;;;;;0.10;0.10;;;;;;;15.21;100.00;99819.63;5116553;28;20201;-59
2023/10/07 09:15:25;;;;;;;0.10;0.10;;;;;;;15.26;100.00;99813.00;5114867;28;20185;-59
2023/10/07 09:18:17;;;;;;;0.10;0.10;;;;;;;14.88;100.00;99803.25;5116526;28;20194;-58
2023/10/07 09:21:18;;;;;;;0.10;0.10;;;;;;;15.57;100.00;99803.56;5116192;28;20193;-59
2023/10/07 09:24:13;;;;;;;0.10;0.10;;;;;;;15.92;100.00;99797.41;5116306;28;20194;-59
2023/10/07 09:27:02;;;;;;;0.10;0.10;;;;;;;16.00;100.00;99801.22;5115282;28;20206;-58
2023/10/07 09:29:51;;;;;;;0.10;0.10;;;;;;;16.18;100.00;99808.81;5115162;28;20289;-59
2023/10/07 09:32:38;;;;;;;0.10;0.10;;;;;;;16.17;100.00;99801.75;5116144;28;20198;-59
2023/10/07 09:35:26;;;;;;;0.10;0.10;;;;;;;16.76;100.00;99793.59;5116126;28;20248;-59
2023/10/07 09:38:28;;;;;;;0.10;0.10;;;;;;;17.51;100.00;99780.31;5116126;28;20683;-56
2023/10/07 09:41:24;;;;;;;0.00;0.00;;;;;;;17.60;100.00;99784.06;5116001;28;20252;-56
2023/10/07 09:44:26;;;;;;;0.00;0.00;;;;;;;16.95;100.00;99783.13;5114588;28;20309;-58
2023/10/07 09:47:21;;;;;;;0.10;0.10;;;;;;;16.65;100.00;99778.34;5115677;28;20209;-58
2023/10/07 09:50:19;;;;;;;0.10;0.10;;;;;;;16.68;100.00;99778.13;5115587;28;20256;-59
2023/10/07 09:53:30;;;;;;;0.10;0.10;;;;;;;17.21;100.00;99773.00;5115491;28;20656;-58
2023/10/07 09:56:32;;;;;;;0.10;0.10;;;;;;;17.71;100.00;99776.88;5115780;28;20198;-58
2023/10/07 09:59:32;;;;;;;0.00;0.00;;;;;;;16.95;100.00;99777.78;5113274;28;20210;-58
2023/10/07 10:02:44;;;;;;;0.10;0.10;;;;;;;17.41;100.00;99782.91;5115482;28;20210;-58
2023/10/07 10:05:47;;;;;;;0.10;0.10;;;;;;;17.41;100.00;99782.06;5114994;28;20248;-59
2023/10/07 10:09:08;;;;;;;0.10;0.10;;;;;;;17.19;100.00;99790.16;5115101;28;20213;-59
2023/10/07 10:15:41;;;;;;;0.10;0.10;;;;;;;16.68;100.00;99796.88;5114108;28;20239;-58
2023/10/07 10:18:40;;;;;;;0.10;0.10;;;;;;;16.50;100.00;99790.25;5114967;28;20268;-58
2023/10/07 10:21:30;;;;;;;0.10;0.10;;;;;;;16.39;100.00;99787.56;5114250;28;20603;-58
2023/10/07 10:24:24;;;;;;;0.10;0.10;;;;;;;16.61;100.00;99787.63;5114774;28;20206;-59
2023/10/07 10:27:11;;;;;;;0.17;0.17;;;;;;;16.69;100.00;99790.53;5115072;28;20193;-58
2023/10/07 10:30:04;;;;;;;0.10;0.10;;;;;;;16.60;100.00;99793.94;5113578;28;20680;-59
2023/10/07 10:32:57;;;;;;;0.10;0.10;;;;;;;17.02;100.00;99786.16;5114849;28;20198;-59
2023/10/07 10:35:44;;;;;;;0.00;0.00;;;;;;;16.71;100.00;99777.91;5114977;28;20202;-58
2023/10/07 10:38:37;;;;;;;0.10;0.10;;;;;;;16.43;100.00;99775.69;5114907;28;20201;-58
2023/10/07 10:41:29;;;;;;;0.10;0.10;;;;;;;16.43;100.00;99769.22;5114693;28;20198;-57
2023/10/07 10:44:17;;;;;;;0.10;0.10;;;;;;;16.60;100.00;99777.91;5113353;28;20202;-58
2023/10/07 10:47:05;;;;;;;0.10;0.10;;;;;;;16.62;100.00;99785.78;5114697;28;20227;-58
2023/10/07 10:49:55;;;;;;;0.10;0.10;;;;;;;16.37;100.00;99785.03;5114498;28;20208;-58
2023/10/07 10:52:43;;;;;;;0.10;0.10;;;;;;;16.68;100.00;99788.84;5114713;28;20198;-58
2023/10/07 10:55:35;;;;;;;0.10;0.10;;;;;;;16.68;100.00;99788.84;5114274;28;20676;-58
2023/10/07 10:58:23;;;;;;;0.10;0.10;;;;;;;17.24;100.00;99780.75;5114565;28;20248;-58
2023/10/07 11:01:11;;;;;;;0.10;0.10;;;;;;;17.22;100.00;99790.75;5113137;28;20191;-58
2023/10/07 11:04:01;;;;;;;0.00;0.00;;;;;;;17.46;100.00;99779.84;5114332;28;20665;-58
2023/10/07 11:06:51;;;;;;;0.10;0.10;;;;;;;17.46;100.00;125270.06;5114161;28;20197;-58
2023/10/07 11:09:38;;;;;;;0.10;0.10;;;;;;;18.53;100.00;99784.22;5114073;28;20226;-58
2023/10/07 11:12:28;;;;;;;0.10;0.10;;;;;;;20.13;100.00;99772.38;5113825;28;20555;-58
2023/10/07 11:15:24;;;;;;;0.10;0.10;;;;;;;21.23;100.00;99760.91;5112551;28;20247;-58
2023/10/07 11:18:14;;;;;;;0.00;0.00;;;;;;;21.62;100.00;99748.06;5113910;28;20186;-58
2023/10/07 11:21:02;;;;;;;0.10;0.10;;;;;;;23.85;100.00;99752.44;5114098;28;20752;-59
2023/10/07 11:23:52;;;;;;;0.10;0.10;;;;;;;27.21;80.49;99745.56;5113851;28;20190;-59
2023/10/07 11:26:39;;;;;;;0.10;0.10;;;;;;;28.45;64.30;99744.28;5114038;28;20189;-60
2023/10/07 11:29:30;;;;;;;0.00;0.00;;;;;;;29.87;55.50;99740.88;5112008;28;20221;-60
2023/10/07 11:32:29;;;;;;;0.00;0.00;;;;;;;27.45;66.38;99738.09;5113950;28;20198;-59
2023/10/07 11:35:19;;;;;;;0.00;0.00;;;;;;;24.98;77.32;99733.41;5113688;28;20193;-59
2023/10/07 11:38:06;;;;;;;0.00;0.00;;;;;;;25.16;83.86;99738.59;5113768;28;20185;-59
2023/10/07 11:40:55;;;;;;;0.00;0.00;;;;;;;27.29;68.51;99731.84;5113809;28;20309;-59
2023/10/07 11:43:43;;;;;;;0.00;0.00;;;;;;;29.68;58.25;99723.44;5113543;28;20307;-60
2023/10/07 11:46:31;;;;;;;0.10;0.10;;;;;;;30.91;51.50;99719.13;5113538;28;20189;-60
2023/10/07 11:49:21;;;;;;;0.00;0.00;;;;;;;30.56;52.48;99724.03;5113405;28;20222;-60
2023/10/07 11:52:08;;;;;;;0.00;0.00;;;;;;;30.73;50.73;99727.19;5113261;28;20198;-59
2023/10/07 11:54:55;;;;;;;0.10;0.10;;;;;;;30.64;51.50;99721.13;5113367;28;20201;-59
2023/10/07 11:57:42;;;;;;;0.05;0.05;;;;;;;30.05;53.23;99716.53;5113273;28;20228;-59
2023/10/07 12:00:34;;;;;;;0.00;0.00;;;;;;;31.63;48.67;99712.44;5112038;28;20213;-59
2023/10/07 12:03:24;;;;;;;0.00;0.00;;;;;;;31.31;48.95;99700.66;5112931;28;20240;-59
2023/10/07 12:06:14;;;;;;;0.00;0.00;;;;;;;30.84;49.28;99706.53;5113566;28;20210;-59
2023/10/07 12:09:08;;;;;;;0.00;0.00;;;;;;;33.57;43.92;99696.47;5111981;28;20218;-59
2023/10/07 12:11:56;;;;;;;0.00;0.00;;;;;;;33.59;43.47;99694.34;5113674;28;20237;-59
2023/10/07 12:14:42;;;;;;;0.00;0.00;;;;;;;33.85;41.46;99698.56;5112102;28;20270;-59
2023/10/07 12:17:31;;;;;;;0.00;0.00;;;;;;;32.66;44.40;99709.25;5112434;28;20327;-59
2023/10/07 12:20:20;;;;;;;0.00;0.00;;;;;;;28.75;54.80;99708.56;5112308;28;20676;-59
2023/10/07 12:23:08;;;;;;;0.00;0.00;;;;;;;27.77;63.73;99710.38;5113120;28;20213;-58
2023/10/07 12:25:55;;;;;;;0.00;0.00;;;;;;;25.02;80.16;99702.25;5111948;28;20202;-58
2023/10/07 12:28:42;;;;;;;0.00;0.00;;;;;;;23.82;94.27;99701.34;5113128;28;20214;-58
2023/10/07 12:31:29;;;;;;;0.10;0.10;;;;;;;23.74;96.64;99704.09;5112814;28;20201;-58
2023/10/07 12:34:16;;;;;;;0.10;0.10;;;;;;;26.47;81.47;99707.56;5113349;28;20603;-58
2023/10/07 12:37:05;;;;;;;0.00;0.00;;;;;;;27.61;69.95;99695.16;5112919;28;20208;-58
2023/10/07 12:39:53;;;;;;;0.10;0.10;;;;;;;29.63;56.46;99701.38;5113051;28;20189;-58
2023/10/07 12:42:41;;;;;;;0.00;0.00;;;;;;;30.81;53.06;99693.28;5114674;28;20194;-59
2023/10/07 12:45:30;;;;;;;0.00;0.00;;;;;;;27.76;60.59;99691.53;5115998;28;20701;-57
2023/10/07 12:48:18;;;;;;;0.00;0.00;;;;;;;25.53;77.94;99697.19;5116631;28;20193;-56
2023/10/07 12:51:06;;;;;;;0.10;0.10;;;;;;;24.45;89.38;99681.66;5116001;28;20190;-58
2023/10/07 12:53:56;;;;;;;0.00;0.00;;;;;;;26.02;81.84;99684.06;5116761;28;20201;-58
2023/10/07 12:56:45;;;;;;;0.00;0.00;;;;;;;24.85;88.77;99687.91;5116696;28;20240;-58
2023/10/07 12:59:35;;;;;;;0.10;0.10;;;;;;;23.53;100.00;99699.13;5115355;28;20191;-58
2023/10/07 13:02:23;;;;;;;0.10;0.10;;;;;;;22.21;100.00;99703.38;5117046;28;20301;-58
2023/10/07 13:05:17;;;;;;;0.10;0.10;;;;;;;22.14;100.00;99696.91;5116463;28;20252;-58
2023/10/07 13:08:08;;;;;;;0.10;0.10;;;;;;;22.21;100.00;99704.22;5116898;28;20201;-58
2023/10/07 13:10:55;;;;;;;0.10;0.10;;;;;;;21.61;100.00;99698.66;5116375;28;20357;-58
2023/10/07 13:13:46;;;;;;;0.10;0.10;;;;;;;21.43;100.00;99703.25;5116673;28;20213;-58
2023/10/07 13:16:37;;;;;;;0.10;0.10;;;;;;;21.54;100.00;99692.22;5116396;28;20214;-58
2023/10/07 13:19:26;;;;;;;0.10;0.10;;;;;;;21.11;100.00;99701.84;5116509;28;20248;-58
2023/10/07 13:22:13;;;;;;;0.10;0.10;;;;;;;20.98;100.00;99690.63;5116330;28;20190;-58